Pagrindinis puslapis
METAR-TAF:

METAR-TAF

Oro uostai :

Maršalo Salų tarptautinis oro uostas

Madžūras, Maršalo salos

platuma: 07-04N, ilguma: 171-17E, Aukštis: 2 m

Dabartinis oras

Ataskaita buvo paskelbta 22 valandos ir 2 minutes, ne 22:51 UTC
Vėjas 14 kt iš Rytų
Temperatūra 31°C
Drėgmė 75%
Slėgis 1010 hPa
Matomumas: 24.1 km
Mažai debesys ne aukštis 1500 ft
Išsisklaidę debesys ne aukštis 5000 ft
Su prošvaistėmis ne aukštis 30000 ft

METAR: PKMJ 092251Z 10014KT 15SM FEW015 SCT050 BKN300 31/26 A2983 RMK LAST

Laikas: 08:53 (20:53 UTC)

Prognozė

Ataskaita buvo paskelbta 3 valandos ir 33 minutes, ne 17:20 UTC
Prognozė galioja nuo 10 metu 18 UTC su 11 metu 18 UTC
Vėjas 11 kt iš Rytų
Matomumas: 10 km
Mažai debesys ne aukštis 1500 ft
Išsisklaidę debesys ne aukštis 5000 ft
Liūtis kaimynystėje

TAF: PKMJ 101720Z 1018/1118 08011KT P6SM VCSH FEW015 SCT050

Orai ataskaitas ir orų prognozės (METAR, TAF).

turimą stotys yra geltonos ir raudonos taškus žemėlapyje.

Perkelti pele per norėdami pamatyti stoties vardą.

Tada spustelėkite, norėdami matyti oro stebėjimo ir prognozės.

Norėdami pakeisti žemėlapį: spustelėkite ant žalios mygtukų su juodo kryžiaus žemyn,; žalią mygtuką su brūkšneliu, jei norite nutolinti; arba žalių rodyklių gretimoms žemėlapius.


METAR-TAF: